createdAt,value
2023-02-11T00:06:27.886Z,90.36
2023-02-11T00:16:31.913Z,90.33
2023-02-11T00:26:37.366Z,90.91
2023-02-11T00:36:40.147Z,90.86
2023-02-11T00:46:44.570Z,90.63
2023-02-11T00:56:47.388Z,90.53
2023-02-11T01:06:51.837Z,91.64
2023-02-11T01:16:54.538Z,91.63
2023-02-11T01:26:58.671Z,91.66
2023-02-11T01:37:01.522Z,91.89
2023-02-11T01:47:06.747Z,92.36
2023-02-11T01:57:25.414Z,92.30
2023-02-11T02:07:37.591Z,92.85
2023-02-11T02:17:48.088Z,93.16
2023-02-11T02:28:01.699Z,93.38
2023-02-11T02:38:10.130Z,93.08
2023-02-11T02:48:26.109Z,93.44
2023-02-11T02:58:55.183Z,94.75
2023-02-11T03:09:01.948Z,94.78
2023-02-11T03:19:10.874Z,95.27
2023-02-11T03:29:19.606Z,95.39
2023-02-11T03:39:28.241Z,95.80
2023-02-11T03:49:33.504Z,96.04
2023-02-11T03:59:55.842Z,95.29
2023-02-11T04:09:58.592Z,96.51
2023-02-11T04:20:02.806Z,96.79
2023-02-11T04:30:06.935Z,97.33
2023-02-11T04:40:12.118Z,98.56
2023-02-11T04:50:14.918Z,98.34
2023-02-11T05:00:25.568Z,100.72
2023-02-11T05:10:28.653Z,102.09
2023-02-11T05:20:32.578Z,103.13
2023-02-11T05:30:35.421Z,102.91
2023-02-11T05:40:39.445Z,102.44
2023-02-11T05:50:42.517Z,101.54
2023-02-11T06:00:46.526Z,100.89
2023-02-11T06:10:49.137Z,100.51
2023-02-11T06:20:53.357Z,100.25
2023-02-11T06:30:56.017Z,99.44
2023-02-11T06:41:00.275Z,99.83
2023-02-11T06:51:04.633Z,99.41
2023-02-11T07:01:10.161Z,98.40
2023-02-11T07:11:14.517Z,98.25
2023-02-11T07:21:20.613Z,97.94
2023-02-11T07:31:24.727Z,98.35
2023-02-11T07:41:29.130Z,98.26
2023-02-11T07:51:32.314Z,97.60
2023-02-11T08:01:36.278Z,97.94
2023-02-11T08:11:38.869Z,97.32
2023-02-11T08:21:43.045Z,96.88
2023-02-11T08:31:48.269Z,96.77
2023-02-11T08:41:54.304Z,96.29
2023-02-11T08:51:59.396Z,96.21
2023-02-11T09:02:03.328Z,96.01
2023-02-11T09:12:06.622Z,95.04
2023-02-11T09:22:10.574Z,94.98
2023-02-11T09:32:13.464Z,94.67
2023-02-11T09:42:39.875Z,94.97
2023-02-11T09:52:49.641Z,94.83
2023-02-11T10:03:04.697Z,94.07
2023-02-11T10:13:36.852Z,93.59
2023-02-11T10:23:45.314Z,93.07
2023-02-11T10:33:52.331Z,93.47
2023-02-11T10:43:58.176Z,93.36
2023-02-11T10:54:21.379Z,92.98
2023-02-11T11:04:41.905Z,93.52
2023-02-11T11:14:54.685Z,92.55
2023-02-11T11:25:01.446Z,91.85
2023-02-11T11:35:21.607Z,91.72
2023-02-11T11:45:27.271Z,91.85
2023-02-11T11:55:35.768Z,91.11
2023-02-11T12:05:47.832Z,92.20
2023-02-11T12:15:59.646Z,92.69
2023-02-11T12:26:14.260Z,92.40
2023-02-11T12:36:33.447Z,92.60
2023-02-11T12:46:44.049Z,92.82
2023-02-11T12:56:52.508Z,93.04
2023-02-11T13:07:02.203Z,92.30
2023-02-11T13:17:12.148Z,91.83
2023-02-11T13:27:37.808Z,92.39
2023-02-11T13:37:40.781Z,91.77
2023-02-11T13:47:45.145Z,91.48
2023-02-11T13:58:18.284Z,91.09
2023-02-11T14:08:42.179Z,90.38
2023-02-11T14:19:02.952Z,89.97
2023-02-11T14:29:17.454Z,88.11
2023-02-11T14:39:35.536Z,89.31
2023-02-11T14:49:40.693Z,90.21
2023-02-11T14:59:58.850Z,90.44
2023-02-11T15:10:03.081Z,90.54
2023-02-11T15:20:20.818Z,91.47
2023-02-11T15:30:33.941Z,91.35
2023-02-11T15:40:38.335Z,92.42
2023-02-11T15:50:44.017Z,92.56
2023-02-11T16:00:49.160Z,92.69
2023-02-11T16:10:58.675Z,92.51
2023-02-11T16:21:02.693Z,92.61
2023-02-11T16:31:07.132Z,93.33
2023-02-11T16:41:11.727Z,93.33
2023-02-11T16:51:15.688Z,93.74
2023-02-11T17:01:18.385Z,93.36
2023-02-11T17:11:22.377Z,93.75
2023-02-11T17:21:29.516Z,93.95
2023-02-11T17:31:34.103Z,93.86
2023-02-11T17:41:39.582Z,93.88
2023-02-11T17:51:43.523Z,93.38
2023-02-11T18:01:46.397Z,93.72
2023-02-11T18:11:52.393Z,94.20
2023-02-11T18:21:55.037Z,94.71
2023-02-11T18:31:59.585Z,94.69
2023-02-11T18:42:02.220Z,95.19
2023-02-11T18:52:06.505Z,95.56
2023-02-11T19:02:10.455Z,95.36
2023-02-11T19:12:14.605Z,96.33
2023-02-11T19:22:18.855Z,96.05
2023-02-11T19:32:22.814Z,95.65
2023-02-11T19:42:27.581Z,95.64
2023-02-11T19:52:31.956Z,96.10
2023-02-11T20:02:34.620Z,95.98
2023-02-11T20:12:38.867Z,95.94
2023-02-11T20:22:41.474Z,96.04
2023-02-11T20:32:45.425Z,96.04
2023-02-11T20:42:48.223Z,96.12
2023-02-11T20:52:52.223Z,97.25
2023-02-11T21:02:54.940Z,96.38
2023-02-11T21:13:00.547Z,96.39
2023-02-11T21:23:03.283Z,97.16
2023-02-11T21:33:07.385Z,97.55
2023-02-11T21:43:10.022Z,98.13
2023-02-11T21:53:14.654Z,98.89
2023-02-11T22:03:17.276Z,99.56
2023-02-11T22:13:21.246Z,99.96
2023-02-11T22:23:23.917Z,100.99
2023-02-11T22:33:29.066Z,101.74
2023-02-11T22:43:31.941Z,101.75
2023-02-11T22:53:36.092Z,102.73
2023-02-11T23:03:38.733Z,102.53
2023-02-11T23:13:44.262Z,102.54
2023-02-11T23:23:46.963Z,102.13
2023-02-11T23:33:51.611Z,102.72
2023-02-11T23:43:56.388Z,102.12
2023-02-11T23:54:00.333Z,101.74
